Time;durP1;ratioP1;P1;durP2;ratioP2;P2;SDS_P1;SDS_P2;PMS_P1;PMS_P2;Temp;Humidity;BMP_temperature;BMP_pressure;BME280_temperature;BME280_humidity;BME280_pressure;Samples;Min_cycle;Max_cycle;Signal;HPM_P1;HPM_P2
2023/05/20 00:01:53;;;;;;;3.55;2.10;;;14.90;99.90;;;;;;5079239;28;20203;-89
2023/05/20 00:04:25;;;;;;;3.63;2.28;;;14.80;99.90;;;;;;5080187;28;20207;-90
2023/05/20 00:07:02;;;;;;;2.33;1.92;;;14.90;99.90;;;;;;5066431;28;20743;-90
2023/05/20 00:09:40;;;;;;;3.13;2.30;;;14.90;99.90;;;;;;5058048;28;20204;-91
2023/05/20 00:12:12;;;;;;;4.45;2.20;;;15.00;99.90;;;;;;5059612;28;20207;-90
2023/05/20 00:14:43;;;;;;;5.97;2.20;;;15.20;99.90;;;;;;5059993;28;20215;-90
2023/05/20 00:17:14;;;;;;;2.50;2.00;;;15.30;99.90;;;;;;5059050;28;20677;-91
2023/05/20 00:19:56;;;;;;;2.50;1.70;;;15.30;99.90;;;;;;5091970;28;20259;-91
2023/05/20 00:22:29;;;;;;;2.28;1.92;;;15.40;99.90;;;;;;5078061;28;20203;-89
2023/05/20 00:25:02;;;;;;;2.85;1.98;;;15.40;99.90;;;;;;5076502;28;20196;-90
2023/05/20 00:27:34;;;;;;;2.58;1.80;;;15.50;99.90;;;;;;5075956;28;20238;-89
2023/05/20 00:30:06;;;;;;;3.30;1.80;;;15.60;99.90;;;;;;5076050;28;20643;-89
2023/05/20 00:32:39;;;;;;;4.00;1.80;;;15.50;99.90;;;;;;5076364;28;20219;-90
2023/05/20 00:35:12;;;;;;;1.92;1.70;;;15.60;99.90;;;;;;5076377;28;20200;-90
2023/05/20 00:37:46;;;;;;;2.75;1.60;;;15.70;99.90;;;;;;5077698;28;20200;-89
2023/05/20 00:40:19;;;;;;;2.72;1.88;;;16.00;99.90;;;;;;5076542;28;20206;-91
2023/05/20 00:42:50;;;;;;;2.92;1.70;;;16.00;99.90;;;;;;5076703;28;20200;-90
2023/05/20 00:45:23;;;;;;;1.85;1.48;;;16.00;99.90;;;;;;5074890;28;20200;-91
2023/05/20 00:47:58;;;;;;;2.22;1.70;;;16.00;99.90;;;;;;5075814;28;20231;-91
2023/05/20 00:50:30;;;;;;;3.67;1.67;;;16.00;99.90;;;;;;5075039;28;20272;-91
2023/05/20 00:53:06;;;;;;;1.77;1.38;;;16.00;99.90;;;;;;5075768;28;20612;-90
2023/05/20 00:55:38;;;;;;;2.80;1.90;;;16.20;99.90;;;;;;5075991;28;20226;-90
2023/05/20 00:58:11;;;;;;;1.90;1.40;;;16.30;99.90;;;;;;5074512;28;20200;-90
2023/05/20 01:00:56;;;;;;;2.45;1.45;;;16.40;99.90;;;;;;5077475;28;20654;-90
2023/05/20 01:03:28;;;;;;;3.03;1.25;;;16.30;99.90;;;;;;5076076;28;20195;-90
2023/05/20 01:06:02;;;;;;;3.85;1.30;;;16.30;99.90;;;;;;5077163;28;20207;-90
2023/05/20 01:08:39;;;;;;;4.28;1.38;;;16.50;99.90;;;;;;5076615;28;20219;-89
2023/05/20 01:11:28;;;;;;;3.42;1.60;;;16.70;99.90;;;;;;5077513;28;20209;-91
2023/05/20 01:14:07;;;;;;;1.98;1.30;;;16.80;99.90;;;;;;5076891;28;20196;-91
2023/05/20 01:16:40;;;;;;;1.67;1.30;;;17.00;99.90;;;;;;5077181;28;20256;-90
2023/05/20 01:19:23;;;;;;;2.95;1.23;;;17.10;99.90;;;;;;5076398;28;20202;-90
2023/05/20 01:21:58;;;;;;;1.73;1.10;;;17.20;99.90;;;;;;5076837;28;20210;-90
2023/05/20 01:24:32;;;;;;;2.25;1.10;;;17.20;99.90;;;;;;5076334;28;20203;-90
2023/05/20 01:27:04;;;;;;;3.05;1.30;;;17.20;99.90;;;;;;5076802;28;20237;-91
2023/05/20 01:29:35;;;;;;;4.00;1.02;;;17.30;99.90;;;;;;5077296;28;20228;-90
2023/05/20 01:32:11;;;;;;;0.93;0.90;;;17.40;99.90;;;;;;5075481;28;20204;-90
2023/05/20 01:34:47;;;;;;;1.10;1.00;;;17.40;99.90;;;;;;5075476;28;20226;-90
2023/05/20 01:37:20;;;;;;;1.33;1.00;;;17.30;99.90;;;;;;5075176;28;20253;-90
2023/05/20 01:39:56;;;;;;;1.63;0.80;;;17.40;99.90;;;;;;5095088;28;20202;-90
2023/05/20 01:42:29;;;;;;;1.10;0.80;;;17.60;99.90;;;;;;5092395;28;20207;-91
2023/05/20 01:45:03;;;;;;;1.85;0.85;;;17.70;99.90;;;;;;5076227;28;20665;-90
2023/05/20 01:47:34;;;;;;;1.63;0.90;;;17.70;99.90;;;;;;5076153;28;20206;-91
2023/05/20 01:50:08;;;;;;;1.42;0.85;;;17.50;99.90;;;;;;5074082;28;20207;-91
2023/05/20 01:52:41;;;;;;;0.90;0.75;;;17.50;99.90;;;;;;5081376;28;20352;-90
2023/05/20 01:55:14;;;;;;;1.10;0.80;;;17.60;99.90;;;;;;5088695;28;20192;-89
2023/05/20 01:57:47;;;;;;;2.53;0.95;;;17.60;99.90;;;;;;5080214;28;20196;-89
2023/05/20 02:00:18;;;;;;;3.58;0.80;;;17.80;99.90;;;;;;5075110;28;20219;-91
2023/05/20 02:02:51;;;;;;;0.88;0.70;;;17.80;99.90;;;;;;5075579;28;20195;-91
2023/05/20 02:05:26;;;;;;;2.17;1.05;;;17.90;99.90;;;;;;5077856;28;20200;-91
2023/05/20 02:07:59;;;;;;;0.82;0.80;;;17.90;99.90;;;;;;5074341;28;20274;-89
2023/05/20 02:10:34;;;;;;;2.30;0.90;;;17.90;99.90;;;;;;5073839;28;20192;-90
2023/05/20 02:13:06;;;;;;;2.45;0.80;;;17.80;99.90;;;;;;5077033;28;20213;-91
2023/05/20 02:15:37;;;;;;;0.60;0.40;;;17.90;99.90;;;;;;5074171;28;20603;-90
2023/05/20 02:18:11;;;;;;;0.98;0.70;;;17.80;99.90;;;;;;5075491;28;20211;-90
2023/05/20 02:20:44;;;;;;;2.00;0.80;;;17.90;99.90;;;;;;5056829;28;20199;-90
2023/05/20 02:23:16;;;;;;;1.45;0.80;;;18.10;99.90;;;;;;5073929;28;20199;-91
2023/05/20 02:25:49;;;;;;;0.70;0.60;;;18.20;99.90;;;;;;5073796;28;20200;-89
2023/05/20 02:28:20;;;;;;;3.10;0.95;;;18.00;99.70;;;;;;5073663;28;20601;-90
2023/05/20 02:30:53;;;;;;;2.05;0.60;;;18.10;99.90;;;;;;5074699;28;20570;-89
2023/05/20 02:33:32;;;;;;;1.65;0.80;;;18.10;99.70;;;;;;5074014;28;20218;-90
2023/05/20 02:36:06;;;;;;;1.25;0.80;;;18.30;98.60;;;;;;5074074;28;20240;-90
2023/05/20 02:38:38;;;;;;;1.40;0.70;;;18.20;99.30;;;;;;5073736;28;20203;-89
2023/05/20 02:41:12;;;;;;;3.47;0.80;;;18.20;98.50;;;;;;5073940;28;20189;-90
2023/05/20 02:43:47;;;;;;;2.60;0.93;;;18.20;98.80;;;;;;5073740;28;20225;-90
2023/05/20 02:46:19;;;;;;;1.30;0.60;;;18.40;98.40;;;;;;5074309;28;20559;-89
2023/05/20 02:48:51;;;;;;;0.70;0.70;;;18.40;97.40;;;;;;5075808;28;20223;-89
2023/05/20 02:51:24;;;;;;;0.88;0.60;;;18.50;97.90;;;;;;5082189;28;20208;-90
2023/05/20 02:53:56;;;;;;;1.52;0.70;;;18.50;97.20;;;;;;5094586;28;20223;-87
2023/05/20 02:56:31;;;;;;;0.55;0.52;;;18.60;96.30;;;;;;5092724;28;20244;-88
2023/05/20 02:59:02;;;;;;;1.20;0.73;;;18.60;96.50;;;;;;5089968;28;20223;-87
2023/05/20 03:01:39;;;;;;;1.08;0.80;;;18.70;96.20;;;;;;5093188;28;20190;-89
2023/05/20 03:04:11;;;;;;;1.95;0.73;;;18.70;96.50;;;;;;5096310;28;20160;-90
2023/05/20 03:06:50;;;;;;;2.25;0.70;;;18.80;96.30;;;;;;5095986;28;20247;-86
2023/05/20 03:09:22;;;;;;;1.15;0.70;;;18.90;95.90;;;;;;5095849;28;20223;-88
2023/05/20 03:11:58;;;;;;;0.82;0.63;;;18.90;94.70;;;;;;5095890;28;20210;-90
2023/05/20 03:14:30;;;;;;;2.92;1.10;;;18.80;94.00;;;;;;5093083;28;20195;-90
2023/05/20 03:17:03;;;;;;;6.68;0.70;;;18.80;94.00;;;;;;5084174;28;20674;-88
2023/05/20 03:19:45;;;;;;;0.80;0.80;;;18.90;94.40;;;;;;5083252;28;20199;-89
2023/05/20 03:22:17;;;;;;;1.85;1.30;;;18.90;93.10;;;;;;5082229;28;20203;-89
2023/05/20 03:24:52;;;;;;;1.27;0.98;;;18.70;92.90;;;;;;5082496;28;20701;-89
2023/05/20 03:27:29;;;;;;;1.73;0.75;;;18.60;92.60;;;;;;5081567;28;20219;-89
2023/05/20 03:30:02;;;;;;;2.90;0.75;;;18.70;93.70;;;;;;5082024;28;20227;-88
2023/05/20 03:32:33;;;;;;;0.93;0.65;;;18.90;93.70;;;;;;5080049;28;20200;-89
2023/05/20 03:35:08;;;;;;;0.60;0.60;;;19.00;93.40;;;;;;5079100;28;20219;-90
2023/05/20 03:37:43;;;;;;;1.88;0.80;;;19.10;92.50;;;;;;5079895;28;20278;-89
2023/05/20 03:40:15;;;;;;;1.92;1.52;;;19.00;92.60;;;;;;5080314;28;20203;-89
2023/05/20 03:42:50;;;;;;;2.67;1.33;;;18.90;92.10;;;;;;5080819;28;20208;-88
2023/05/20 03:45:23;;;;;;;5.07;0.95;;;18.90;92.30;;;;;;5088725;28;20559;-89
2023/05/20 03:47:55;;;;;;;0.98;0.55;;;18.90;92.50;;;;;;5081781;28;20559;-89
2023/05/20 03:50:31;;;;;;;3.92;0.77;;;18.90;93.20;;;;;;5080267;28;20230;-89
2023/05/20 03:53:03;;;;;;;1.42;0.50;;;18.80;92.90;;;;;;5079123;28;20192;-89
2023/05/20 03:55:35;;;;;;;0.98;0.82;;;18.90;93.80;;;;;;5078812;28;20206;-90
2023/05/20 03:58:12;;;;;;;2.20;0.60;;;19.00;93.00;;;;;;5078326;28;20283;-89
2023/05/20 04:00:44;;;;;;;0.80;0.60;;;19.10;92.90;;;;;;5078933;28;20215;-89
2023/05/20 04:03:17;;;;;;;1.08;0.63;;;19.10;92.90;;;;;;5086753;28;20655;-89
2023/05/20 04:05:49;;;;;;;1.13;0.70;;;19.10;93.00;;;;;;5080708;28;20204;-90
2023/05/20 04:08:24;;;;;;;0.65;0.65;;;19.10;92.50;;;;;;5067675;28;20260;-90
2023/05/20 04:11:02;;;;;;;1.20;0.77;;;19.20;92.10;;;;;;5057932;28;20250;-89
2023/05/20 04:13:39;;;;;;;1.08;0.63;;;19.20;92.40;;;;;;5058332;28;20211;-89
2023/05/20 04:16:11;;;;;;;1.27;0.70;;;19.10;92.40;;;;;;5062773;28;20230;-89
2023/05/20 04:18:44;;;;;;;0.77;0.50;;;19.10;92.20;;;;;;5057240;28;20239;-89
2023/05/20 04:21:17;;;;;;;0.98;0.60;;;19.10;92.20;;;;;;5060309;28;20197;-89
2023/05/20 04:23:48;;;;;;;1.05;0.60;;;19.10;92.60;;;;;;5057223;28;20200;-89
2023/05/20 04:26:20;;;;;;;0.63;0.50;;;19.20;92.40;;;;;;5056907;28;20232;-89
2023/05/20 04:28:57;;;;;;;0.70;0.60;;;19.20;92.30;;;;;;5056618;28;20586;-89
2023/05/20 04:31:30;;;;;;;0.95;0.77;;;19.10;92.60;;;;;;5056621;28;20208;-88
2023/05/20 04:34:02;;;;;;;1.60;0.63;;;19.10;91.40;;;;;;5073346;28;20647;-89
2023/05/20 04:36:33;;;;;;;4.28;0.60;;;19.10;91.00;;;;;;5076492;28;20199;-88
2023/05/20 04:39:05;;;;;;;0.82;0.60;;;19.10;91.00;;;;;;5076751;28;20204;-88
2023/05/20 04:41:38;;;;;;;2.85;0.75;;;19.20;91.50;;;;;;5076579;28;20218;-88
2023/05/20 04:44:12;;;;;;;2.83;1.20;;;19.10;90.30;;;;;;5075722;28;20269;-89
2023/05/20 04:46:47;;;;;;;0.60;0.60;;;19.10;90.30;;;;;;5075758;28;20636;-89
2023/05/20 04:49:21;;;;;;;0.50;0.50;;;19.10;90.70;;;;;;5075588;28;20220;-88
2023/05/20 04:51:54;;;;;;;1.60;0.98;;;19.00;90.40;;;;;;5075426;28;20275;-89
2023/05/20 04:54:25;;;;;;;0.77;0.68;;;19.10;90.80;;;;;;5074586;28;20663;-90
2023/05/20 04:57:02;;;;;;;1.35;0.60;;;18.90;90.40;;;;;;5075436;28;20196;-88
2023/05/20 04:59:36;;;;;;;2.85;0.60;;;18.90;90.90;;;;;;5076042;28;20216;-88
2023/05/20 05:02:09;;;;;;;0.47;0.40;;;18.90;91.20;;;;;;5075661;28;20195;-89
2023/05/20 05:04:41;;;;;;;1.60;0.50;;;19.00;90.20;;;;;;5076353;28;20200;-89
2023/05/20 05:07:13;;;;;;;1.85;0.60;;;18.80;90.70;;;;;;5065635;28;20204;-89
2023/05/20 05:09:45;;;;;;;0.73;0.73;;;18.90;90.70;;;;;;5060506;28;20219;-89
2023/05/20 05:12:18;;;;;;;1.30;0.65;;;19.00;90.20;;;;;;5064062;28;20203;-88
2023/05/20 05:14:56;;;;;;;1.60;0.60;;;18.80;89.30;;;;;;5054927;28;20212;-91
2023/05/20 05:17:27;;;;;;;0.50;0.50;;;18.80;89.40;;;;;;5054399;28;20199;-88
2023/05/20 05:19:58;;;;;;;0.63;0.40;;;18.90;89.70;;;;;;5055035;28;20218;-88
2023/05/20 05:22:35;;;;;;;0.90;0.60;;;18.90;89.90;;;;;;5054555;28;20204;-89
2023/05/20 05:25:09;;;;;;;0.95;0.70;;;19.00;90.40;;;;;;5073217;28;20196;-88
2023/05/20 05:27:44;;;;;;;0.52;0.50;;;19.00;89.50;;;;;;5074426;28;20223;-88
2023/05/20 05:30:17;;;;;;;0.85;0.65;;;19.10;90.30;;;;;;5074902;28;20230;-89
2023/05/20 05:32:49;;;;;;;2.58;0.65;;;19.10;89.70;;;;;;5076342;28;20255;-89
2023/05/20 05:35:23;;;;;;;0.73;0.70;;;19.10;88.20;;;;;;5074899;28;20208;-89
2023/05/20 05:37:56;;;;;;;0.45;0.40;;;19.00;87.40;;;;;;5073850;28;20199;-90
2023/05/20 05:40:29;;;;;;;0.40;0.40;;;19.00;87.60;;;;;;5074857;28;20219;-88
2023/05/20 05:43:02;;;;;;;0.68;0.50;;;19.00;88.00;;;;;;5077023;28;20204;-88
2023/05/20 05:45:37;;;;;;;0.90;0.70;;;19.00;88.30;;;;;;5075512;28;20577;-89
2023/05/20 05:48:15;;;;;;;1.00;0.80;;;18.90;88.40;;;;;;5073152;28;20199;-87
2023/05/20 05:50:51;;;;;;;1.38;0.75;;;18.90;87.80;;;;;;5067328;28;20220;-86
2023/05/20 05:53:23;;;;;;;1.10;0.50;;;18.80;88.90;;;;;;5053246;28;20184;-87
2023/05/20 05:55:57;;;;;;;1.50;0.60;;;18.60;88.80;;;;;;5053369;28;20204;-89
2023/05/20 05:58:29;;;;;;;0.95;0.60;;;18.40;88.80;;;;;;5066614;28;20232;-89
2023/05/20 06:01:04;;;;;;;4.07;0.82;;;18.40;89.40;;;;;;5073329;28;20589;-90
2023/05/20 06:03:35;;;;;;;1.30;1.00;;;18.60;88.50;;;;;;5073774;28;20195;-89
2023/05/20 06:06:07;;;;;;;1.98;0.88;;;18.60;87.90;;;;;;5076935;28;20651;-90
2023/05/20 06:08:42;;;;;;;0.85;0.65;;;18.60;85.50;;;;;;5084680;28;20264;-86
2023/05/20 06:11:14;;;;;;;1.63;0.50;;;18.50;86.40;;;;;;5056760;28;20220;-89
2023/05/20 06:13:47;;;;;;;1.75;0.57;;;18.50;86.40;;;;;;5053824;28;20201;-89
2023/05/20 06:16:22;;;;;;;1.67;0.60;;;18.70;86.60;;;;;;5072465;28;20211;-88
2023/05/20 06:18:57;;;;;;;1.75;0.47;;;18.80;85.80;;;;;;5073077;28;20208;-90
2023/05/20 06:21:29;;;;;;;1.15;0.52;;;18.80;85.90;;;;;;5073813;28;20226;-91
2023/05/20 06:24:00;;;;;;;0.80;0.60;;;18.90;85.80;;;;;;5073347;28;20296;-88
2023/05/20 06:26:34;;;;;;;2.47;0.50;;;18.90;86.60;;;;;;5073268;28;20250;-89
2023/05/20 06:29:08;;;;;;;0.40;0.40;;;18.70;86.50;;;;;;5074822;28;20202;-91
2023/05/20 06:31:46;;;;;;;1.90;0.50;;;18.50;87.00;;;;;;5073929;28;20207;-88
2023/05/20 06:34:17;;;;;;;1.13;0.43;;;18.40;86.30;;;;;;5073590;28;20196;-89
2023/05/20 06:36:49;;;;;;;0.77;0.70;;;18.30;86.90;;;;;;5073722;28;20203;-87
2023/05/20 06:39:21;;;;;;;0.50;0.50;;;18.00;87.20;;;;;;5073086;28;20218;-88
2023/05/20 06:41:54;;;;;;;1.13;1.02;;;18.00;88.20;;;;;;5072316;28;20202;-90
2023/05/20 06:44:25;;;;;;;1.55;1.20;;;17.90;87.90;;;;;;5072975;28;20617;-87
2023/05/20 06:46:59;;;;;;;3.10;1.42;;;17.90;88.30;;;;;;5072991;28;20718;-88
2023/05/20 06:49:31;;;;;;;0.95;0.88;;;17.90;88.70;;;;;;5072538;28;20234;-89
2023/05/20 06:52:05;;;;;;;2.08;1.70;;;17.80;88.30;;;;;;5074948;28;20195;-88
2023/05/20 06:54:40;;;;;;;3.65;2.70;;;17.70;90.00;;;;;;5074788;28;20282;-90
2023/05/20 06:57:13;;;;;;;5.53;3.55;;;17.60;89.70;;;;;;5073364;28;20253;-88
2023/05/20 06:59:45;;;;;;;2.17;1.98;;;17.60;90.30;;;;;;5072936;28;20224;-89
2023/05/20 07:02:18;;;;;;;1.17;0.90;;;17.60;90.00;;;;;;5073425;28;20675;-88
2023/05/20 07:04:49;;;;;;;1.50;0.60;;;17.60;89.40;;;;;;5072885;28;20541;-86
2023/05/20 07:07:20;;;;;;;1.00;0.75;;;17.50;89.40;;;;;;5072438;28;20210;-88
2023/05/20 07:09:52;;;;;;;1.45;1.00;;;17.50;89.00;;;;;;5066839;28;20231;-89
2023/05/20 07:12:23;;;;;;;1.48;0.93;;;17.50;88.90;;;;;;5053678;28;20201;-89
2023/05/20 07:14:55;;;;;;;2.03;1.10;;;17.40;88.40;;;;;;5054372;28;20197;-88
2023/05/20 07:17:32;;;;;;;2.47;1.60;;;17.40;88.70;;;;;;5052548;28;20204;-86
2023/05/20 07:20:05;;;;;;;2.13;1.15;;;17.30;89.20;;;;;;5051982;28;20204;-87
2023/05/20 07:22:37;;;;;;;3.05;1.70;;;17.40;89.20;;;;;;5057414;28;20663;-86
2023/05/20 07:25:12;;;;;;;3.25;1.70;;;17.30;88.80;;;;;;5071748;28;20204;-86
2023/05/20 07:27:44;;;;;;;2.55;1.15;;;17.30;89.40;;;;;;5072180;28;20231;-89
2023/05/20 07:30:17;;;;;;;2.92;1.10;;;17.20;89.30;;;;;;5071662;28;20751;-87
2023/05/20 07:32:52;;;;;;;2.85;1.10;;;17.30;89.30;;;;;;5072620;28;20196;-87
2023/05/20 07:35:26;;;;;;;2.55;1.38;;;17.30;89.40;;;;;;5071783;28;20195;-88
2023/05/20 07:37:57;;;;;;;2.60;1.60;;;17.20;90.20;;;;;;5071930;28;20202;-87
2023/05/20 07:40:28;;;;;;;2.45;1.80;;;17.20;89.60;;;;;;5072112;28;20263;-87
2023/05/20 07:43:00;;;;;;;4.43;2.03;;;17.20;90.10;;;;;;5072923;28;20275;-88
2023/05/20 07:45:31;;;;;;;3.00;1.80;;;17.20;90.30;;;;;;5072821;28;20200;-86
2023/05/20 07:48:05;;;;;;;8.75;3.47;;;17.10;90.00;;;;;;5072896;28;20194;-89
2023/05/20 07:50:38;;;;;;;4.30;3.20;;;17.10;90.40;;;;;;5072697;28;20220;-90
2023/05/20 07:53:10;;;;;;;3.45;2.40;;;17.10;90.90;;;;;;5071731;28;20195;-89
2023/05/20 07:55:41;;;;;;;3.53;2.22;;;17.00;91.10;;;;;;5072468;28;20204;-89
2023/05/20 07:58:15;;;;;;;3.65;2.30;;;17.00;91.30;;;;;;5072307;28;20208;-88
2023/05/20 08:00:48;;;;;;;4.50;3.08;;;17.00;91.30;;;;;;5076154;28;20200;-89
2023/05/20 08:03:21;;;;;;;3.40;2.80;;;17.00;91.40;;;;;;5076922;28;20553;-89
2023/05/20 08:05:52;;;;;;;4.57;2.90;;;17.00;91.60;;;;;;5075372;28;20188;-88
2023/05/20 08:08:22;;;;;;;5.20;2.60;;;16.90;91.80;;;;;;5075259;28;20200;-86
2023/05/20 08:10:55;;;;;;;4.40;2.50;;;16.90;92.10;;;;;;5060566;28;20228;-89
2023/05/20 08:13:27;;;;;;;3.53;2.20;;;16.80;92.40;;;;;;5057450;28;20203;-86
2023/05/20 08:15:58;;;;;;;4.00;2.80;;;16.80;92.50;;;;;;5054705;28;20363;-87
2023/05/20 08:18:31;;;;;;;4.65;2.50;;;16.80;92.80;;;;;;5054527;28;20205;-88
2023/05/20 08:21:03;;;;;;;5.65;3.22;;;16.80;93.00;;;;;;5054249;28;20201;-87
2023/05/20 08:23:33;;;;;;;4.68;2.80;;;16.80;92.90;;;;;;5054842;28;20616;-86
2023/05/20 08:26:04;;;;;;;6.72;2.83;;;16.80;92.90;;;;;;5054447;28;20201;-86
2023/05/20 08:28:36;;;;;;;4.85;2.58;;;16.80;93.00;;;;;;5054827;28;20690;-87
2023/05/20 08:31:29;;;;;;;3.30;2.20;;;16.80;93.10;;;;;;5063630;28;20308;-88
2023/05/20 08:34:03;;;;;;;4.10;2.70;;;16.80;93.40;;;;;;5074912;28;20224;-85
2023/05/20 08:36:34;;;;;;;5.53;2.92;;;16.80;94.30;;;;;;5074690;28;20192;-87
2023/05/20 08:39:05;;;;;;;5.18;2.75;;;16.70;95.30;;;;;;5074307;28;20747;-86
2023/05/20 08:41:36;;;;;;;2.72;2.42;;;16.60;95.90;;;;;;5073803;28;20211;-87
2023/05/20 08:44:07;;;;;;;4.03;2.00;;;16.60;96.50;;;;;;5074341;28;20203;-88
2023/05/20 08:46:40;;;;;;;2.40;1.70;;;16.50;96.80;;;;;;5073814;28;20561;-88
2023/05/20 08:49:13;;;;;;;8.70;3.58;;;16.50;97.40;;;;;;5073417;28;20206;-88
2023/05/20 08:51:45;;;;;;;7.70;3.55;;;16.40;96.60;;;;;;5073292;28;20234;-88
2023/05/20 08:54:17;;;;;;;4.22;2.90;;;16.40;96.60;;;;;;5074067;28;20719;-88
2023/05/20 08:56:48;;;;;;;6.93;3.30;;;16.30;97.10;;;;;;5073471;28;20257;-88
2023/05/20 08:59:20;;;;;;;6.63;3.58;;;16.20;97.90;;;;;;5073841;28;20226;-87
2023/05/20 09:01:51;;;;;;;5.85;3.20;;;16.30;97.80;;;;;;5075568;28;20288;-87
2023/05/20 09:04:31;;;;;;;4.80;3.22;;;16.30;97.00;;;;;;5085501;28;20267;-88
2023/05/20 09:07:03;;;;;;;5.47;2.90;;;16.30;97.10;;;;;;5090299;28;20231;-87
2023/05/20 09:09:36;;;;;;;3.95;2.90;;;16.20;97.20;;;;;;5083914;28;20228;-88
2023/05/20 09:12:08;;;;;;;5.50;3.13;;;16.20;97.60;;;;;;5080566;28;20781;-87
2023/05/20 09:14:39;;;;;;;4.95;2.53;;;16.20;98.50;;;;;;5082496;28;20199;-88
2023/05/20 09:17:10;;;;;;;2.88;2.05;;;16.20;98.70;;;;;;5083126;28;20234;-88
2023/05/20 09:19:51;;;;;;;3.47;2.17;;;16.20;99.00;;;;;;5084838;28;20183;-88
2023/05/20 09:22:34;;;;;;;3.63;2.10;;;16.10;99.60;;;;;;5076789;28;20216;-89
2023/05/20 09:25:09;;;;;;;3.60;2.30;;;16.00;99.90;;;;;;5062148;28;20195;-87
2023/05/20 09:27:46;;;;;;;5.28;3.47;;;16.00;99.90;;;;;;5065116;28;20318;-88
2023/05/20 09:30:20;;;;;;;6.10;2.80;;;16.00;99.90;;;;;;5063855;28;20230;-88
2023/05/20 09:32:57;;;;;;;4.25;2.60;;;16.10;99.90;;;;;;5057661;28;20279;-87
2023/05/20 09:35:32;;;;;;;5.05;3.03;;;16.00;99.90;;;;;;5058740;28;20200;-88
2023/05/20 09:38:03;;;;;;;6.75;3.35;;;16.00;99.90;;;;;;5061465;28;20204;-87
2023/05/20 09:40:36;;;;;;;7.00;3.60;;;16.00;99.90;;;;;;5064143;28;20205;-88
2023/05/20 09:43:09;;;;;;;7.40;3.85;;;16.00;99.90;;;;;;5080406;28;20199;-87
2023/05/20 09:45:42;;;;;;;6.97;3.97;;;15.90;99.90;;;;;;5087650;28;20196;-87
2023/05/20 09:48:14;;;;;;;5.93;3.78;;;15.90;99.90;;;;;;5082293;28;20234;-86
2023/05/20 09:50:51;;;;;;;5.85;3.38;;;15.90;99.90;;;;;;5091429;28;20266;-85
2023/05/20 09:53:22;;;;;;;4.65;3.00;;;15.90;99.90;;;;;;5068103;28;20214;-88
2023/05/20 09:55:54;;;;;;;4.65;2.80;;;15.80;99.90;;;;;;5083569;28;20196;-84
2023/05/20 09:58:29;;;;;;;4.15;2.90;;;15.70;99.90;;;;;;5092059;28;20224;-88
2023/05/20 10:01:03;;;;;;;4.10;2.90;;;15.70;99.90;;;;;;5080414;28;20235;-88
2023/05/20 10:03:36;;;;;;;6.18;2.95;;;15.70;99.90;;;;;;5076948;28;20192;-89
2023/05/20 10:06:27;;;;;;;4.03;3.00;;;15.70;99.90;;;;;;5077124;28;20192;-87
2023/05/20 10:09:16;;;;;;;5.15;2.55;;;15.70;99.90;;;;;;5080868;28;20210;-85
2023/05/20 10:11:57;;;;;;;7.20;4.10;;;15.70;99.90;;;;;;5081978;28;20227;-85
2023/05/20 10:14:42;;;;;;;7.13;5.05;;;15.60;99.90;;;;;;5077821;28;20200;-88
2023/05/20 10:17:19;;;;;;;5.20;3.80;;;15.70;99.90;;;;;;5079949;28;20600;-87
2023/05/20 10:19:50;;;;;;;7.10;4.13;;;15.70;99.90;;;;;;5077134;28;20206;-88
2023/05/20 10:22:31;;;;;;;5.63;3.63;;;15.60;99.90;;;;;;5075439;28;20196;-87
2023/05/20 10:25:07;;;;;;;5.85;2.65;;;15.60;99.90;;;;;;5077375;28;20466;-88
2023/05/20 10:27:48;;;;;;;3.22;2.63;;;15.60;99.90;;;;;;5075737;28;20718;-87
2023/05/20 10:30:21;;;;;;;2.72;2.53;;;15.60;99.90;;;;;;5073616;28;20766;-88
2023/05/20 10:33:10;;;;;;;4.78;2.85;;;15.50;99.90;;;;;;5074514;28;20196;-85
2023/05/20 10:36:00;;;;;;;4.78;3.05;;;15.50;99.90;;;;;;5088155;28;20215;-87
2023/05/20 10:38:34;;;;;;;3.00;2.30;;;15.50;99.90;;;;;;5086262;28;20729;-87
2023/05/20 10:44:25;;;;;;;3.83;2.72;;;15.50;99.90;;;;;;5087479;28;20230;-89
2023/05/20 10:47:05;;;;;;;3.38;2.33;;;15.40;99.90;;;;;;5083552;28;20214;-87
2023/05/20 10:49:38;;;;;;;2.38;1.92;;;15.50;99.90;;;;;;5083558;28;20195;-88
2023/05/20 10:52:15;;;;;;;2.47;2.00;;;15.40;99.90;;;;;;5084679;28;20612;-87
2023/05/20 10:54:59;;;;;;;3.30;2.50;;;15.40;99.90;;;;;;5083787;28;20208;-87
2023/05/20 10:57:35;;;;;;;3.55;3.08;;;15.40;99.90;;;;;;5088010;28;20198;-86
2023/05/20 11:00:09;;;;;;;5.22;4.35;;;15.40;99.90;;;;;;5084545;28;20207;-87
2023/05/20 11:02:44;;;;;;;6.10;4.70;;;15.40;99.90;;;;;;5086688;28;20207;-87
2023/05/20 11:05:19;;;;;;;2.90;2.60;;;15.20;99.90;;;;;;5088106;28;20230;-87
2023/05/20 11:07:51;;;;;;;6.20;3.00;;;15.20;99.90;;;;;;5085652;28;20674;-88
2023/05/20 11:10:30;;;;;;;4.10;3.50;;;15.20;99.90;;;;;;5086332;28;20214;-87
2023/05/20 11:13:03;;;;;;;6.15;4.18;;;15.10;99.90;;;;;;5078856;28;20635;-88
2023/05/20 11:15:40;;;;;;;6.90;4.10;;;15.10;99.90;;;;;;5081150;28;20205;-88
2023/05/20 11:18:14;;;;;;;5.85;3.67;;;15.00;99.90;;;;;;5084180;28;20255;-88
2023/05/20 11:20:45;;;;;;;4.07;2.80;;;15.00;99.90;;;;;;5073450;28;20203;-88
2023/05/20 11:23:17;;;;;;;3.83;2.58;;;15.00;99.90;;;;;;5071926;28;20600;-87
2023/05/20 11:25:51;;;;;;;4.50;3.53;;;15.00;99.90;;;;;;5072675;28;20188;-88
2023/05/20 11:28:31;;;;;;;6.13;4.47;;;15.00;99.90;;;;;;5076448;28;20242;-87
2023/05/20 11:31:06;;;;;;;16.83;11.18;;;15.00;99.90;;;;;;5069564;28;20215;-86
2023/05/20 11:33:38;;;;;;;12.40;6.88;;;15.00;99.90;;;;;;5074800;28;20199;-87
2023/05/20 11:36:12;;;;;;;5.60;4.00;;;15.00;99.90;;;;;;5080775;28;20650;-87
2023/05/20 11:38:47;;;;;;;3.33;3.03;;;14.90;99.90;;;;;;5076640;28;20324;-88
2023/05/20 11:41:25;;;;;;;3.80;3.05;;;14.90;99.90;;;;;;5078801;28;20203;-86
2023/05/20 11:44:01;;;;;;;5.43;3.33;;;14.90;99.90;;;;;;5077460;28;20202;-87
2023/05/20 11:46:33;;;;;;;4.40;3.15;;;14.70;99.90;;;;;;5078532;28;20470;-88
2023/05/20 11:49:04;;;;;;;4.35;3.35;;;14.80;99.90;;;;;;5080264;28;20278;-87
2023/05/20 11:51:35;;;;;;;5.32;3.47;;;14.70;99.90;;;;;;5078916;28;20226;-86
2023/05/20 11:54:09;;;;;;;3.42;2.63;;;14.70;99.90;;;;;;5075720;28;20237;-88
2023/05/20 11:56:49;;;;;;;3.38;2.50;;;14.60;99.90;;;;;;5079662;28;20196;-84
2023/05/20 11:59:20;;;;;;;3.28;2.25;;;14.60;99.90;;;;;;5073872;28;20219;-87
2023/05/20 12:01:56;;;;;;;3.47;1.98;;;14.60;99.90;;;;;;5068817;28;20205;-87
2023/05/20 12:04:34;;;;;;;2.53;2.13;;;14.60;99.90;;;;;;5081226;28;20200;-87
2023/05/20 12:07:11;;;;;;;2.60;2.13;;;14.60;99.90;;;;;;5090198;28;20282;-88
2023/05/20 12:09:43;;;;;;;3.40;2.50;;;14.60;99.90;;;;;;5082631;28;20199;-88
2023/05/20 12:12:19;;;;;;;3.03;2.60;;;14.60;99.90;;;;;;5083870;28;20211;-86
2023/05/20 12:14:52;;;;;;;4.05;2.60;;;14.60;99.90;;;;;;5080796;28;20249;-88
2023/05/20 12:17:26;;;;;;;3.05;2.42;;;14.60;99.90;;;;;;5084157;28;20191;-87
2023/05/20 12:20:00;;;;;;;4.13;2.50;;;14.70;99.90;;;;;;5080713;28;20223;-87
2023/05/20 12:22:34;;;;;;;3.58;2.38;;;14.70;99.90;;;;;;5084734;28;20208;-88
2023/05/20 12:25:08;;;;;;;3.40;2.50;;;14.60;99.90;;;;;;5068218;28;20198;-86
2023/05/20 12:27:46;;;;;;;3.53;2.70;;;14.60;99.90;;;;;;5083111;28;20219;-83
2023/05/20 12:30:19;;;;;;;2.25;2.00;;;14.60;99.90;;;;;;5078671;28;20187;-84
2023/05/20 12:32:52;;;;;;;2.58;2.10;;;14.60;99.90;;;;;;5086280;28;20228;-85
2023/05/20 12:35:39;;;;;;;3.33;2.10;;;14.60;99.90;;;;;;5077783;28;20684;-87
2023/05/20 12:38:10;;;;;;;2.58;2.03;;;14.50;99.90;;;;;;5082552;28;20195;-87
2023/05/20 12:40:46;;;;;;;3.13;2.40;;;14.50;99.90;;;;;;5081519;28;20192;-87
2023/05/20 12:43:22;;;;;;;3.30;2.10;;;14.50;99.90;;;;;;5082007;28;20196;-85
2023/05/20 12:45:55;;;;;;;2.50;1.70;;;14.50;99.90;;;;;;5079089;28;20203;-89
2023/05/20 12:48:27;;;;;;;2.30;2.00;;;14.50;99.90;;;;;;5076123;28;20202;-89
2023/05/20 12:51:03;;;;;;;1.75;1.50;;;14.40;99.90;;;;;;5084696;28;20196;-86
2023/05/20 12:53:38;;;;;;;2.80;1.60;;;14.50;99.90;;;;;;5083525;28;20200;-86
2023/05/20 12:56:18;;;;;;;2.45;1.67;;;14.50;99.90;;;;;;5079881;28;20274;-88
2023/05/20 12:58:59;;;;;;;1.50;1.30;;;14.50;99.90;;;;;;5069041;28;20196;-89
2023/05/20 13:01:32;;;;;;;1.63;1.30;;;14.50;99.90;;;;;;5063123;28;20208;-89
2023/05/20 13:04:06;;;;;;;2.50;1.30;;;14.60;99.90;;;;;;5079869;28;20208;-89
2023/05/20 13:06:39;;;;;;;1.60;1.48;;;14.60;99.90;;;;;;5074777;28;20204;-88
2023/05/20 13:09:10;;;;;;;1.55;1.20;;;14.50;99.90;;;;;;5057278;28;20251;-89
2023/05/20 13:11:42;;;;;;;1.83;1.30;;;14.60;99.90;;;;;;5059967;28;20637;-88
2023/05/20 13:14:16;;;;;;;2.63;1.45;;;14.50;99.90;;;;;;5074938;28;20222;-89
2023/05/20 13:16:48;;;;;;;1.40;1.25;;;14.50;99.90;;;;;;5074299;28;20200;-90
2023/05/20 13:19:20;;;;;;;1.80;1.02;;;14.50;99.90;;;;;;5075613;28;20592;-90
2023/05/20 13:21:53;;;;;;;1.92;1.30;;;14.60;99.90;;;;;;5074259;28;20200;-90
2023/05/20 13:24:25;;;;;;;2.30;1.30;;;14.60;99.90;;;;;;5073871;28;20196;-90